sensor_id;sensor_type;location;lat;lon;timestamp;P1;durP1;ratioP1;P2;durP2;ratioP2
73869;SDS011;64924;42.140;24.762;2023-07-16T00:01:52;7.28;;;3.97;;
73869;SDS011;64924;42.140;24.762;2023-07-16T00:04:18;4.35;;;3.58;;
73869;SDS011;64924;42.140;24.762;2023-07-16T00:06:43;4.47;;;3.40;;
73869;SDS011;64924;42.140;24.762;2023-07-16T00:09:09;6.70;;;3.47;;
73869;SDS011;64924;42.140;24.762;2023-07-16T00:11:34;5.40;;;3.80;;
73869;SDS011;64924;42.140;24.762;2023-07-16T00:14:00;6.43;;;4.32;;
73869;SDS011;64924;42.140;24.762;2023-07-16T00:16:27;5.20;;;3.92;;
73869;SDS011;64924;42.140;24.762;2023-07-16T00:18:52;6.20;;;3.30;;
73869;SDS011;64924;42.140;24.762;2023-07-16T00:21:18;4.75;;;3.75;;
73869;SDS011;64924;42.140;24.762;2023-07-16T00:23:43;5.18;;;3.67;;
73869;SDS011;64924;42.140;24.762;2023-07-16T00:26:09;5.55;;;3.97;;
73869;SDS011;64924;42.140;24.762;2023-07-16T00:28:35;6.05;;;3.92;;
73869;SDS011;64924;42.140;24.762;2023-07-16T00:31:00;6.45;;;3.83;;
73869;SDS011;64924;42.140;24.762;2023-07-16T00:33:26;5.75;;;4.07;;
73869;SDS011;64924;42.140;24.762;2023-07-16T00:35:52;4.30;;;3.42;;
73869;SDS011;64924;42.140;24.762;2023-07-16T00:38:17;8.05;;;4.13;;
73869;SDS011;64924;42.140;24.762;2023-07-16T00:40:43;4.13;;;3.42;;
73869;SDS011;64924;42.140;24.762;2023-07-16T00:43:09;7.53;;;3.88;;
73869;SDS011;64924;42.140;24.762;2023-07-16T00:45:35;9.77;;;4.45;;
73869;SDS011;64924;42.140;24.762;2023-07-16T00:48:01;6.78;;;3.47;;
73869;SDS011;64924;42.140;24.762;2023-07-16T00:50:27;6.72;;;4.07;;
73869;SDS011;64924;42.140;24.762;2023-07-16T00:52:58;4.40;;;3.42;;
73869;SDS011;64924;42.140;24.762;2023-07-16T00:55:28;5.78;;;3.67;;
73869;SDS011;64924;42.140;24.762;2023-07-16T00:57:55;9.32;;;3.72;;
73869;SDS011;64924;42.140;24.762;2023-07-16T01:00:28;8.80;;;3.55;;
73869;SDS011;64924;42.140;24.762;2023-07-16T01:02:53;6.18;;;3.35;;
73869;SDS011;64924;42.140;24.762;2023-07-16T01:05:19;6.25;;;3.80;;
73869;SDS011;64924;42.140;24.762;2023-07-16T01:07:50;5.20;;;3.50;;
73869;SDS011;64924;42.140;24.762;2023-07-16T01:10:22;5.30;;;3.65;;
73869;SDS011;64924;42.140;24.762;2023-07-16T01:12:51;4.75;;;3.70;;
73869;SDS011;64924;42.140;24.762;2023-07-16T01:15:19;5.78;;;4.00;;
73869;SDS011;64924;42.140;24.762;2023-07-16T01:17:45;4.63;;;3.47;;
73869;SDS011;64924;42.140;24.762;2023-07-16T01:20:11;5.63;;;3.25;;
73869;SDS011;64924;42.140;24.762;2023-07-16T01:31:01;5.22;;;4.00;;
73869;SDS011;64924;42.140;24.762;2023-07-16T01:33:27;13.20;;;3.60;;
73869;SDS011;64924;42.140;24.762;2023-07-16T01:35:53;7.28;;;4.30;;
73869;SDS011;64924;42.140;24.762;2023-07-16T01:38:19;5.57;;;3.70;;
73869;SDS011;64924;42.140;24.762;2023-07-16T01:40:46;6.30;;;3.78;;
73869;SDS011;64924;42.140;24.762;2023-07-16T01:43:12;6.95;;;3.42;;
73869;SDS011;64924;42.140;24.762;2023-07-16T01:45:38;7.35;;;4.18;;
73869;SDS011;64924;42.140;24.762;2023-07-16T01:50:32;6.95;;;3.92;;
73869;SDS011;64924;42.140;24.762;2023-07-16T01:52:58;5.18;;;4.10;;
73869;SDS011;64924;42.140;24.762;2023-07-16T01:55:23;5.70;;;3.47;;
73869;SDS011;64924;42.140;24.762;2023-07-16T01:57:49;5.18;;;3.90;;
73869;SDS011;64924;42.140;24.762;2023-07-16T02:00:14;5.65;;;3.28;;
73869;SDS011;64924;42.140;24.762;2023-07-16T02:02:40;8.98;;;4.20;;
73869;SDS011;64924;42.140;24.762;2023-07-16T02:05:05;6.13;;;4.35;;
73869;SDS011;64924;42.140;24.762;2023-07-16T02:07:31;6.00;;;3.97;;
73869;SDS011;64924;42.140;24.762;2023-07-16T02:09:56;6.72;;;4.10;;
73869;SDS011;64924;42.140;24.762;2023-07-16T02:12:22;5.65;;;3.65;;
73869;SDS011;64924;42.140;24.762;2023-07-16T02:14:47;7.28;;;3.97;;
73869;SDS011;64924;42.140;24.762;2023-07-16T02:17:13;5.47;;;4.00;;
73869;SDS011;64924;42.140;24.762;2023-07-16T02:19:38;6.43;;;3.42;;
73869;SDS011;64924;42.140;24.762;2023-07-16T02:22:04;4.78;;;3.60;;
73869;SDS011;64924;42.140;24.762;2023-07-16T02:24:29;5.80;;;4.07;;
73869;SDS011;64924;42.140;24.762;2023-07-16T02:26:55;11.20;;;4.03;;
73869;SDS011;64924;42.140;24.762;2023-07-16T02:29:20;8.00;;;4.10;;
73869;SDS011;64924;42.140;24.762;2023-07-16T02:31:46;7.93;;;4.35;;
73869;SDS011;64924;42.140;24.762;2023-07-16T02:34:13;7.13;;;3.85;;
73869;SDS011;64924;42.140;24.762;2023-07-16T02:36:39;8.32;;;4.20;;
73869;SDS011;64924;42.140;24.762;2023-07-16T02:39:04;6.68;;;3.80;;
73869;SDS011;64924;42.140;24.762;2023-07-16T02:41:30;6.32;;;4.10;;
73869;SDS011;64924;42.140;24.762;2023-07-16T02:43:59;5.50;;;3.80;;
73869;SDS011;64924;42.140;24.762;2023-07-16T02:46:25;6.32;;;3.85;;
73869;SDS011;64924;42.140;24.762;2023-07-16T02:48:51;8.45;;;4.00;;
73869;SDS011;64924;42.140;24.762;2023-07-16T02:51:16;7.55;;;3.95;;
73869;SDS011;64924;42.140;24.762;2023-07-16T02:53:42;6.18;;;4.47;;
73869;SDS011;64924;42.140;24.762;2023-07-16T02:56:07;7.45;;;4.63;;
73869;SDS011;64924;42.140;24.762;2023-07-16T02:58:33;9.18;;;5.00;;
73869;SDS011;64924;42.140;24.762;2023-07-16T03:00:58;6.25;;;4.15;;
73869;SDS011;64924;42.140;24.762;2023-07-16T03:03:24;5.80;;;5.07;;
73869;SDS011;64924;42.140;24.762;2023-07-16T03:05:49;9.90;;;6.57;;
73869;SDS011;64924;42.140;24.762;2023-07-16T03:08:14;9.82;;;4.88;;
73869;SDS011;64924;42.140;24.762;2023-07-16T03:10:40;7.55;;;4.82;;
73869;SDS011;64924;42.140;24.762;2023-07-16T03:13:05;7.53;;;4.32;;
73869;SDS011;64924;42.140;24.762;2023-07-16T03:15:31;9.75;;;4.78;;
73869;SDS011;64924;42.140;24.762;2023-07-16T03:17:56;9.65;;;4.78;;
73869;SDS011;64924;42.140;24.762;2023-07-16T03:20:22;6.35;;;4.38;;
73869;SDS011;64924;42.140;24.762;2023-07-16T03:22:47;8.90;;;4.43;;
73869;SDS011;64924;42.140;24.762;2023-07-16T03:25:13;6.35;;;4.38;;
73869;SDS011;64924;42.140;24.762;2023-07-16T03:27:38;6.32;;;4.40;;
73869;SDS011;64924;42.140;24.762;2023-07-16T03:30:05;7.97;;;4.43;;
73869;SDS011;64924;42.140;24.762;2023-07-16T03:32:31;7.10;;;4.40;;
73869;SDS011;64924;42.140;24.762;2023-07-16T03:34:56;7.82;;;4.47;;
73869;SDS011;64924;42.140;24.762;2023-07-16T03:37:22;9.13;;;4.30;;
73869;SDS011;64924;42.140;24.762;2023-07-16T03:39:47;7.28;;;3.95;;
73869;SDS011;64924;42.140;24.762;2023-07-16T03:42:13;8.18;;;4.45;;
73869;SDS011;64924;42.140;24.762;2023-07-16T03:44:38;8.10;;;5.05;;
73869;SDS011;64924;42.140;24.762;2023-07-16T03:47:04;7.85;;;4.80;;
73869;SDS011;64924;42.140;24.762;2023-07-16T03:49:29;7.32;;;4.35;;
73869;SDS011;64924;42.140;24.762;2023-07-16T03:51:55;6.40;;;4.00;;
73869;SDS011;64924;42.140;24.762;2023-07-16T03:54:20;10.45;;;4.28;;
73869;SDS011;64924;42.140;24.762;2023-07-16T03:56:46;10.32;;;5.07;;
73869;SDS011;64924;42.140;24.762;2023-07-16T03:59:11;7.22;;;4.15;;
73869;SDS011;64924;42.140;24.762;2023-07-16T04:01:37;5.43;;;4.25;;
73869;SDS011;64924;42.140;24.762;2023-07-16T04:04:02;7.28;;;4.97;;
73869;SDS011;64924;42.140;24.762;2023-07-16T04:06:28;7.90;;;5.15;;
73869;SDS011;64924;42.140;24.762;2023-07-16T04:08:53;5.90;;;4.38;;
73869;SDS011;64924;42.140;24.762;2023-07-16T04:11:19;7.05;;;5.68;;
73869;SDS011;64924;42.140;24.762;2023-07-16T04:13:44;9.77;;;4.28;;
73869;SDS011;64924;42.140;24.762;2023-07-16T04:16:10;9.55;;;4.60;;
73869;SDS011;64924;42.140;24.762;2023-07-16T04:18:35;9.98;;;4.80;;
73869;SDS011;64924;42.140;24.762;2023-07-16T04:21:00;7.07;;;4.75;;
73869;SDS011;64924;42.140;24.762;2023-07-16T04:23:26;5.93;;;4.75;;
73869;SDS011;64924;42.140;24.762;2023-07-16T04:25:52;7.80;;;4.68;;
73869;SDS011;64924;42.140;24.762;2023-07-16T04:28:18;7.32;;;4.63;;
73869;SDS011;64924;42.140;24.762;2023-07-16T04:30:44;9.10;;;4.10;;
73869;SDS011;64924;42.140;24.762;2023-07-16T04:33:09;10.43;;;4.72;;
73869;SDS011;64924;42.140;24.762;2023-07-16T04:35:35;6.63;;;4.70;;
73869;SDS011;64924;42.140;24.762;2023-07-16T04:38:00;7.35;;;4.65;;
73869;SDS011;64924;42.140;24.762;2023-07-16T04:40:26;10.25;;;4.90;;
73869;SDS011;64924;42.140;24.762;2023-07-16T04:42:53;6.40;;;4.50;;
73869;SDS011;64924;42.140;24.762;2023-07-16T04:45:19;7.65;;;4.45;;
73869;SDS011;64924;42.140;24.762;2023-07-16T04:47:44;7.22;;;4.65;;
73869;SDS011;64924;42.140;24.762;2023-07-16T04:50:10;8.52;;;4.75;;
73869;SDS011;64924;42.140;24.762;2023-07-16T04:52:35;6.85;;;4.65;;
73869;SDS011;64924;42.140;24.762;2023-07-16T04:55:01;9.52;;;4.35;;
73869;SDS011;64924;42.140;24.762;2023-07-16T04:57:26;6.60;;;4.65;;
73869;SDS011;64924;42.140;24.762;2023-07-16T04:59:52;6.07;;;4.10;;
73869;SDS011;64924;42.140;24.762;2023-07-16T05:02:18;8.13;;;4.95;;
73869;SDS011;64924;42.140;24.762;2023-07-16T05:04:44;6.22;;;4.78;;
73869;SDS011;64924;42.140;24.762;2023-07-16T05:07:12;8.50;;;4.47;;
73869;SDS011;64924;42.140;24.762;2023-07-16T05:09:38;6.60;;;4.60;;
73869;SDS011;64924;42.140;24.762;2023-07-16T05:12:03;7.90;;;4.80;;
73869;SDS011;64924;42.140;24.762;2023-07-16T05:14:29;9.18;;;4.78;;
73869;SDS011;64924;42.140;24.762;2023-07-16T05:16:55;8.93;;;5.05;;
73869;SDS011;64924;42.140;24.762;2023-07-16T05:19:21;8.15;;;4.47;;
73869;SDS011;64924;42.140;24.762;2023-07-16T05:21:47;7.20;;;4.82;;
73869;SDS011;64924;42.140;24.762;2023-07-16T05:24:12;7.60;;;4.80;;
73869;SDS011;64924;42.140;24.762;2023-07-16T05:26:38;5.90;;;5.15;;
73869;SDS011;64924;42.140;24.762;2023-07-16T05:29:03;5.35;;;4.85;;
73869;SDS011;64924;42.140;24.762;2023-07-16T05:31:29;9.55;;;4.60;;
73869;SDS011;64924;42.140;24.762;2023-07-16T05:33:54;12.60;;;5.00;;
73869;SDS011;64924;42.140;24.762;2023-07-16T05:36:20;7.35;;;4.82;;
73869;SDS011;64924;42.140;24.762;2023-07-16T05:38:45;5.88;;;4.25;;
73869;SDS011;64924;42.140;24.762;2023-07-16T05:41:11;6.30;;;4.30;;
73869;SDS011;64924;42.140;24.762;2023-07-16T05:43:36;7.07;;;4.30;;
73869;SDS011;64924;42.140;24.762;2023-07-16T05:46:02;7.53;;;4.63;;
73869;SDS011;64924;42.140;24.762;2023-07-16T05:48:30;7.45;;;4.55;;
73869;SDS011;64924;42.140;24.762;2023-07-16T05:50:56;9.27;;;4.30;;
73869;SDS011;64924;42.140;24.762;2023-07-16T05:53:21;8.13;;;4.60;;
73869;SDS011;64924;42.140;24.762;2023-07-16T05:55:47;8.73;;;4.75;;
73869;SDS011;64924;42.140;24.762;2023-07-16T05:58:14;7.38;;;4.30;;
73869;SDS011;64924;42.140;24.762;2023-07-16T06:00:40;7.20;;;4.88;;
73869;SDS011;64924;42.140;24.762;2023-07-16T06:03:05;7.75;;;4.72;;
73869;SDS011;64924;42.140;24.762;2023-07-16T06:05:31;8.30;;;5.03;;
73869;SDS011;64924;42.140;24.762;2023-07-16T06:07:59;6.28;;;4.40;;
73869;SDS011;64924;42.140;24.762;2023-07-16T06:10:27;6.10;;;4.38;;
73869;SDS011;64924;42.140;24.762;2023-07-16T06:12:53;7.97;;;4.80;;
73869;SDS011;64924;42.140;24.762;2023-07-16T06:15:19;7.97;;;4.05;;
73869;SDS011;64924;42.140;24.762;2023-07-16T06:17:44;7.82;;;4.80;;
73869;SDS011;64924;42.140;24.762;2023-07-16T06:20:10;6.57;;;4.63;;
73869;SDS011;64924;42.140;24.762;2023-07-16T06:22:36;6.90;;;5.00;;
73869;SDS011;64924;42.140;24.762;2023-07-16T06:25:01;9.50;;;4.85;;
73869;SDS011;64924;42.140;24.762;2023-07-16T06:27:27;7.30;;;4.57;;
73869;SDS011;64924;42.140;24.762;2023-07-16T06:29:53;10.95;;;4.53;;
73869;SDS011;64924;42.140;24.762;2023-07-16T06:32:18;6.72;;;4.40;;
73869;SDS011;64924;42.140;24.762;2023-07-16T06:34:43;6.47;;;4.38;;
73869;SDS011;64924;42.140;24.762;2023-07-16T06:37:09;4.80;;;3.80;;
73869;SDS011;64924;42.140;24.762;2023-07-16T06:39:34;8.77;;;4.53;;
73869;SDS011;64924;42.140;24.762;2023-07-16T06:42:00;7.30;;;4.40;;
73869;SDS011;64924;42.140;24.762;2023-07-16T06:44:25;7.00;;;4.38;;
73869;SDS011;64924;42.140;24.762;2023-07-16T06:46:51;7.88;;;4.40;;
73869;SDS011;64924;42.140;24.762;2023-07-16T06:49:17;10.05;;;4.82;;
73869;SDS011;64924;42.140;24.762;2023-07-16T06:51:43;6.85;;;4.40;;
73869;SDS011;64924;42.140;24.762;2023-07-16T06:54:08;6.63;;;3.55;;
73869;SDS011;64924;42.140;24.762;2023-07-16T06:56:34;6.13;;;4.07;;
73869;SDS011;64924;42.140;24.762;2023-07-16T06:58:59;9.05;;;4.15;;
73869;SDS011;64924;42.140;24.762;2023-07-16T07:01:25;11.82;;;4.47;;
73869;SDS011;64924;42.140;24.762;2023-07-16T07:03:52;6.45;;;3.80;;
73869;SDS011;64924;42.140;24.762;2023-07-16T07:06:19;5.70;;;4.22;;
73869;SDS011;64924;42.140;24.762;2023-07-16T07:08:44;4.10;;;3.50;;
73869;SDS011;64924;42.140;24.762;2023-07-16T07:11:10;4.30;;;3.50;;
73869;SDS011;64924;42.140;24.762;2023-07-16T07:13:35;6.43;;;3.72;;
73869;SDS011;64924;42.140;24.762;2023-07-16T07:16:00;5.05;;;3.65;;
73869;SDS011;64924;42.140;24.762;2023-07-16T07:18:26;5.22;;;3.50;;
73869;SDS011;64924;42.140;24.762;2023-07-16T07:20:51;7.82;;;3.88;;
73869;SDS011;64924;42.140;24.762;2023-07-16T07:23:17;8.40;;;3.60;;
73869;SDS011;64924;42.140;24.762;2023-07-16T07:25:42;4.60;;;3.30;;
73869;SDS011;64924;42.140;24.762;2023-07-16T07:28:08;4.75;;;3.08;;
73869;SDS011;64924;42.140;24.762;2023-07-16T07:30:33;4.78;;;3.03;;
73869;SDS011;64924;42.140;24.762;2023-07-16T07:32:59;4.07;;;3.55;;
73869;SDS011;64924;42.140;24.762;2023-07-16T07:35:24;6.20;;;3.83;;
73869;SDS011;64924;42.140;24.762;2023-07-16T07:37:50;6.18;;;3.83;;
73869;SDS011;64924;42.140;24.762;2023-07-16T07:40:15;8.40;;;3.33;;
73869;SDS011;64924;42.140;24.762;2023-07-16T07:42:41;6.72;;;3.28;;
73869;SDS011;64924;42.140;24.762;2023-07-16T07:45:06;4.38;;;3.78;;
73869;SDS011;64924;42.140;24.762;2023-07-16T07:47:32;5.85;;;3.75;;
73869;SDS011;64924;42.140;24.762;2023-07-16T07:49:58;7.10;;;3.85;;
73869;SDS011;64924;42.140;24.762;2023-07-16T07:52:23;5.70;;;3.53;;
73869;SDS011;64924;42.140;24.762;2023-07-16T07:54:49;8.70;;;3.60;;
73869;SDS011;64924;42.140;24.762;2023-07-16T07:57:15;7.68;;;3.58;;
73869;SDS011;64924;42.140;24.762;2023-07-16T07:59:40;5.90;;;3.38;;
73869;SDS011;64924;42.140;24.762;2023-07-16T08:02:06;5.97;;;3.75;;
73869;SDS011;64924;42.140;24.762;2023-07-16T08:04:31;4.82;;;3.75;;
73869;SDS011;64924;42.140;24.762;2023-07-16T08:07:00;9.70;;;4.43;;
73869;SDS011;64924;42.140;24.762;2023-07-16T08:09:25;13.00;;;3.90;;
73869;SDS011;64924;42.140;24.762;2023-07-16T08:11:52;6.22;;;4.00;;
73869;SDS011;64924;42.140;24.762;2023-07-16T08:14:17;7.82;;;3.72;;
73869;SDS011;64924;42.140;24.762;2023-07-16T08:16:43;5.90;;;3.80;;
73869;SDS011;64924;42.140;24.762;2023-07-16T08:19:08;4.93;;;3.85;;
73869;SDS011;64924;42.140;24.762;2023-07-16T08:21:34;9.13;;;3.88;;
73869;SDS011;64924;42.140;24.762;2023-07-16T08:24:01;5.22;;;3.75;;
73869;SDS011;64924;42.140;24.762;2023-07-16T08:26:26;5.53;;;4.25;;
73869;SDS011;64924;42.140;24.762;2023-07-16T08:28:52;6.30;;;4.50;;
73869;SDS011;64924;42.140;24.762;2023-07-16T08:31:17;7.03;;;4.07;;
73869;SDS011;64924;42.140;24.762;2023-07-16T08:33:43;7.15;;;4.13;;
73869;SDS011;64924;42.140;24.762;2023-07-16T08:36:09;5.32;;;3.70;;
73869;SDS011;64924;42.140;24.762;2023-07-16T08:38:35;7.57;;;3.75;;
73869;SDS011;64924;42.140;24.762;2023-07-16T08:41:00;12.55;;;4.20;;
73869;SDS011;64924;42.140;24.762;2023-07-16T08:43:26;7.13;;;3.75;;
73869;SDS011;64924;42.140;24.762;2023-07-16T08:45:53;6.78;;;4.47;;
73869;SDS011;64924;42.140;24.762;2023-07-16T08:48:20;6.32;;;4.07;;
73869;SDS011;64924;42.140;24.762;2023-07-16T08:50:47;6.13;;;3.90;;
73869;SDS011;64924;42.140;24.762;2023-07-16T08:53:17;7.97;;;3.95;;
73869;SDS011;64924;42.140;24.762;2023-07-16T08:55:46;8.25;;;3.67;;
73869;SDS011;64924;42.140;24.762;2023-07-16T08:58:12;7.82;;;3.70;;
73869;SDS011;64924;42.140;24.762;2023-07-16T09:00:40;5.57;;;3.92;;
73869;SDS011;64924;42.140;24.762;2023-07-16T09:03:07;9.65;;;4.60;;
73869;SDS011;64924;42.140;24.762;2023-07-16T09:05:33;7.30;;;4.25;;
73869;SDS011;64924;42.140;24.762;2023-07-16T09:08:00;8.07;;;3.88;;
73869;SDS011;64924;42.140;24.762;2023-07-16T09:10:26;8.43;;;4.47;;
73869;SDS011;64924;42.140;24.762;2023-07-16T09:12:51;6.75;;;4.50;;
73869;SDS011;64924;42.140;24.762;2023-07-16T09:15:17;8.57;;;4.32;;
73869;SDS011;64924;42.140;24.762;2023-07-16T09:17:48;6.15;;;4.75;;
73869;SDS011;64924;42.140;24.762;2023-07-16T09:20:17;5.57;;;4.60;;
73869;SDS011;64924;42.140;24.762;2023-07-16T09:22:43;7.20;;;4.85;;
73869;SDS011;64924;42.140;24.762;2023-07-16T09:25:09;7.65;;;5.25;;
73869;SDS011;64924;42.140;24.762;2023-07-16T09:27:36;6.18;;;5.00;;
73869;SDS011;64924;42.140;24.762;2023-07-16T09:30:03;8.95;;;6.00;;
73869;SDS011;64924;42.140;24.762;2023-07-16T09:32:34;7.50;;;5.25;;
73869;SDS011;64924;42.140;24.762;2023-07-16T09:35:00;9.30;;;5.75;;
73869;SDS011;64924;42.140;24.762;2023-07-16T09:37:26;7.07;;;5.57;;
73869;SDS011;64924;42.140;24.762;2023-07-16T09:39:53;11.70;;;5.82;;
73869;SDS011;64924;42.140;24.762;2023-07-16T09:42:19;10.65;;;5.10;;
73869;SDS011;64924;42.140;24.762;2023-07-16T09:44:45;11.25;;;5.88;;
73869;SDS011;64924;42.140;24.762;2023-07-16T09:47:11;7.78;;;5.57;;
73869;SDS011;64924;42.140;24.762;2023-07-16T09:49:38;8.90;;;6.22;;
73869;SDS011;64924;42.140;24.762;2023-07-16T09:52:03;11.68;;;6.13;;
73869;SDS011;64924;42.140;24.762;2023-07-16T09:54:31;10.05;;;6.30;;
73869;SDS011;64924;42.140;24.762;2023-07-16T09:57:00;7.55;;;5.60;;
73869;SDS011;64924;42.140;24.762;2023-07-16T09:59:28;11.20;;;6.15;;
73869;SDS011;64924;42.140;24.762;2023-07-16T10:01:55;8.45;;;6.57;;
73869;SDS011;64924;42.140;24.762;2023-07-16T10:04:24;11.75;;;6.75;;
73869;SDS011;64924;42.140;24.762;2023-07-16T10:06:58;13.15;;;6.20;;
73869;SDS011;64924;42.140;24.762;2023-07-16T10:09:50;9.68;;;6.90;;
73869;SDS011;64924;42.140;24.762;2023-07-16T10:12:18;13.85;;;6.75;;
73869;SDS011;64924;42.140;24.762;2023-07-16T10:14:48;10.45;;;7.30;;
73869;SDS011;64924;42.140;24.762;2023-07-16T10:17:21;7.93;;;6.95;;
73869;SDS011;64924;42.140;24.762;2023-07-16T10:19:49;11.90;;;7.53;;
73869;SDS011;64924;42.140;24.762;2023-07-16T10:27:44;11.88;;;7.32;;
73869;SDS011;64924;42.140;24.762;2023-07-16T10:30:11;10.80;;;6.97;;
73869;SDS011;64924;42.140;24.762;2023-07-16T10:32:36;12.95;;;8.07;;
73869;SDS011;64924;42.140;24.762;2023-07-16T10:35:03;13.32;;;8.80;;
73869;SDS011;64924;42.140;24.762;2023-07-16T10:37:30;16.15;;;8.02;;
73869;SDS011;64924;42.140;24.762;2023-07-16T10:39:59;12.60;;;8.20;;
73869;SDS011;64924;42.140;24.762;2023-07-16T10:42:26;11.27;;;7.97;;
73869;SDS011;64924;42.140;24.762;2023-07-16T10:44:59;12.20;;;8.13;;
73869;SDS011;64924;42.140;24.762;2023-07-16T10:47:33;12.00;;;8.10;;
73869;SDS011;64924;42.140;24.762;2023-07-16T10:50:00;9.52;;;8.52;;
73869;SDS011;64924;42.140;24.762;2023-07-16T10:52:28;10.95;;;9.32;;
73869;SDS011;64924;42.140;24.762;2023-07-16T10:54:53;11.82;;;8.45;;
73869;SDS011;64924;42.140;24.762;2023-07-16T10:57:27;11.65;;;8.32;;
73869;SDS011;64924;42.140;24.762;2023-07-16T10:59:53;14.52;;;8.45;;
73869;SDS011;64924;42.140;24.762;2023-07-16T11:02:20;11.95;;;8.57;;
73869;SDS011;64924;42.140;24.762;2023-07-16T11:04:47;11.07;;;9.57;;
73869;SDS011;64924;42.140;24.762;2023-07-16T11:07:14;9.18;;;7.78;;
73869;SDS011;64924;42.140;24.762;2023-07-16T11:09:44;9.88;;;7.60;;
73869;SDS011;64924;42.140;24.762;2023-07-16T11:12:13;12.23;;;7.45;;
73869;SDS011;64924;42.140;24.762;2023-07-16T11:14:57;11.40;;;7.03;;
73869;SDS011;64924;42.140;24.762;2023-07-16T11:17:23;11.05;;;7.82;;
73869;SDS011;64924;42.140;24.762;2023-07-16T11:19:50;13.93;;;7.65;;
73869;SDS011;64924;42.140;24.762;2023-07-16T11:22:17;11.52;;;7.50;;
73869;SDS011;64924;42.140;24.762;2023-07-16T11:27:19;7.75;;;6.95;;
73869;SDS011;64924;42.140;24.762;2023-07-16T11:32:32;13.52;;;7.93;;
73869;SDS011;64924;42.140;24.762;2023-07-16T11:35:00;10.02;;;7.82;;
73869;SDS011;64924;42.140;24.762;2023-07-16T11:37:28;13.52;;;7.35;;
73869;SDS011;64924;42.140;24.762;2023-07-16T11:40:02;15.98;;;8.23;;
73869;SDS011;64924;42.140;24.762;2023-07-16T11:42:30;10.50;;;7.45;;
73869;SDS011;64924;42.140;24.762;2023-07-16T11:44:56;9.20;;;8.20;;
73869;SDS011;64924;42.140;24.762;2023-07-16T11:47:22;10.32;;;8.02;;
73869;SDS011;64924;42.140;24.762;2023-07-16T11:49:48;10.00;;;8.70;;
73869;SDS011;64924;42.140;24.762;2023-07-16T11:52:14;10.10;;;7.95;;
73869;SDS011;64924;42.140;24.762;2023-07-16T11:54:39;13.15;;;7.82;;
73869;SDS011;64924;42.140;24.762;2023-07-16T11:57:05;12.90;;;8.88;;
73869;SDS011;64924;42.140;24.762;2023-07-16T11:59:31;9.00;;;7.88;;
73869;SDS011;64924;42.140;24.762;2023-07-16T12:01:56;15.18;;;10.75;;
73869;SDS011;64924;42.140;24.762;2023-07-16T12:04:22;12.57;;;8.63;;
73869;SDS011;64924;42.140;24.762;2023-07-16T12:06:48;12.38;;;7.90;;
73869;SDS011;64924;42.140;24.762;2023-07-16T12:09:13;10.85;;;8.88;;
73869;SDS011;64924;42.140;24.762;2023-07-16T12:11:38;11.25;;;8.15;;
73869;SDS011;64924;42.140;24.762;2023-07-16T12:14:07;13.40;;;8.05;;
73869;SDS011;64924;42.140;24.762;2023-07-16T12:18:59;9.85;;;8.85;;
73869;SDS011;64924;42.140;24.762;2023-07-16T12:21:24;11.63;;;8.60;;
73869;SDS011;64924;42.140;24.762;2023-07-16T12:23:50;13.48;;;7.53;;
73869;SDS011;64924;42.140;24.762;2023-07-16T12:26:15;9.68;;;8.65;;
73869;SDS011;64924;42.140;24.762;2023-07-16T12:28:41;9.00;;;7.80;;
73869;SDS011;64924;42.140;24.762;2023-07-16T12:31:06;14.07;;;9.32;;
73869;SDS011;64924;42.140;24.762;2023-07-16T12:33:31;9.63;;;8.63;;
73869;SDS011;64924;42.140;24.762;2023-07-16T12:35:57;11.82;;;9.45;;
73869;SDS011;64924;42.140;24.762;2023-07-16T12:38:22;14.30;;;9.23;;
73869;SDS011;64924;42.140;24.762;2023-07-16T12:40:48;12.23;;;8.73;;
73869;SDS011;64924;42.140;24.762;2023-07-16T12:43:13;9.98;;;8.43;;
73869;SDS011;64924;42.140;24.762;2023-07-16T12:45:39;9.40;;;8.38;;
73869;SDS011;64924;42.140;24.762;2023-07-16T12:48:04;13.93;;;8.85;;
73869;SDS011;64924;42.140;24.762;2023-07-16T12:50:30;10.38;;;8.52;;
73869;SDS011;64924;42.140;24.762;2023-07-16T12:52:56;10.50;;;8.23;;
73869;SDS011;64924;42.140;24.762;2023-07-16T12:55:21;16.35;;;9.43;;
73869;SDS011;64924;42.140;24.762;2023-07-16T12:57:47;11.70;;;8.65;;
73869;SDS011;64924;42.140;24.762;2023-07-16T13:00:12;13.75;;;8.63;;
73869;SDS011;64924;42.140;24.762;2023-07-16T13:02:38;11.00;;;8.90;;
73869;SDS011;64924;42.140;24.762;2023-07-16T13:05:04;13.35;;;8.73;;
73869;SDS011;64924;42.140;24.762;2023-07-16T13:07:30;11.98;;;10.30;;
73869;SDS011;64924;42.140;24.762;2023-07-16T13:09:56;14.10;;;10.98;;
73869;SDS011;64924;42.140;24.762;2023-07-16T13:12:22;16.92;;;9.95;;
73869;SDS011;64924;42.140;24.762;2023-07-16T13:14:48;17.02;;;10.57;;
73869;SDS011;64924;42.140;24.762;2023-07-16T13:17:13;13.35;;;10.30;;
73869;SDS011;64924;42.140;24.762;2023-07-16T13:19:41;14.52;;;11.02;;
73869;SDS011;64924;42.140;24.762;2023-07-16T13:22:07;12.57;;;10.68;;
73869;SDS011;64924;42.140;24.762;2023-07-16T13:24:32;12.45;;;10.32;;
73869;SDS011;64924;42.140;24.762;2023-07-16T13:26:58;15.85;;;10.40;;
73869;SDS011;64924;42.140;24.762;2023-07-16T13:29:23;13.77;;;10.48;;
73869;SDS011;64924;42.140;24.762;2023-07-16T13:31:49;16.25;;;11.38;;
73869;SDS011;64924;42.140;24.762;2023-07-16T13:34:14;13.05;;;10.95;;
73869;SDS011;64924;42.140;24.762;2023-07-16T13:36:40;13.07;;;10.82;;
73869;SDS011;64924;42.140;24.762;2023-07-16T13:39:05;14.57;;;9.90;;
73869;SDS011;64924;42.140;24.762;2023-07-16T13:41:31;14.20;;;11.05;;
73869;SDS011;64924;42.140;24.762;2023-07-16T13:43:57;11.45;;;10.25;;
73869;SDS011;64924;42.140;24.762;2023-07-16T13:46:22;10.73;;;9.63;;
73869;SDS011;64924;42.140;24.762;2023-07-16T13:48:48;13.73;;;10.88;;
73869;SDS011;64924;42.140;24.762;2023-07-16T13:51:13;14.23;;;11.23;;
73869;SDS011;64924;42.140;24.762;2023-07-16T13:53:39;17.85;;;10.90;;
73869;SDS011;64924;42.140;24.762;2023-07-16T13:56:05;12.70;;;10.20;;
73869;SDS011;64924;42.140;24.762;2023-07-16T13:58:31;11.63;;;10.43;;
73869;SDS011;64924;42.140;24.762;2023-07-16T14:00:56;17.02;;;11.55;;
73869;SDS011;64924;42.140;24.762;2023-07-16T14:03:22;12.68;;;11.38;;
73869;SDS011;64924;42.140;24.762;2023-07-16T14:05:47;17.35;;;13.05;;
73869;SDS011;64924;42.140;24.762;2023-07-16T14:08:13;15.60;;;10.45;;
73869;SDS011;64924;42.140;24.762;2023-07-16T14:10:38;10.57;;;9.55;;
73869;SDS011;64924;42.140;24.762;2023-07-16T14:13:04;11.43;;;8.57;;
73869;SDS011;64924;42.140;24.762;2023-07-16T14:15:29;16.13;;;9.20;;
73869;SDS011;64924;42.140;24.762;2023-07-16T14:17:55;12.77;;;8.73;;
73869;SDS011;64924;42.140;24.762;2023-07-16T14:20:20;9.18;;;8.27;;
73869;SDS011;64924;42.140;24.762;2023-07-16T14:22:46;14.75;;;9.73;;
73869;SDS011;64924;42.140;24.762;2023-07-16T14:25:11;14.98;;;9.52;;
73869;SDS011;64924;42.140;24.762;2023-07-16T14:27:37;16.33;;;10.10;;
73869;SDS011;64924;42.140;24.762;2023-07-16T14:30:02;11.60;;;7.93;;
73869;SDS011;64924;42.140;24.762;2023-07-16T14:32:28;14.02;;;8.43;;
73869;SDS011;64924;42.140;24.762;2023-07-16T14:34:56;10.48;;;8.52;;
73869;SDS011;64924;42.140;24.762;2023-07-16T14:37:22;9.20;;;7.30;;
73869;SDS011;64924;42.140;24.762;2023-07-16T14:39:47;16.52;;;7.80;;
73869;SDS011;64924;42.140;24.762;2023-07-16T14:42:13;10.48;;;7.57;;
73869;SDS011;64924;42.140;24.762;2023-07-16T14:44:38;13.77;;;7.30;;
73869;SDS011;64924;42.140;24.762;2023-07-16T14:47:04;10.82;;;7.82;;